sensor_id;sensor_type;location;lat;lon;timestamp;temperature;humidity
19734;DHT22;10018;51.230;7.860;2022-10-15T00:00:38;13.00;99.90
19734;DHT22;10018;51.230;7.860;2022-10-15T00:03:04;13.00;99.90
19734;DHT22;10018;51.230;7.860;2022-10-15T00:05:30;13.00;99.90
19734;DHT22;10018;51.230;7.860;2022-10-15T00:07:55;13.00;99.90
19734;DHT22;10018;51.230;7.860;2022-10-15T00:10:21;13.00;99.90
19734;DHT22;10018;51.230;7.860;2022-10-15T00:12:47;13.00;99.90
19734;DHT22;10018;51.230;7.860;2022-10-15T00:15:12;13.00;99.90
19734;DHT22;10018;51.230;7.860;2022-10-15T00:17:39;13.00;99.90
19734;DHT22;10018;51.230;7.860;2022-10-15T00:20:07;13.00;99.90
19734;DHT22;10018;51.230;7.860;2022-10-15T00:22:33;13.00;99.90
19734;DHT22;10018;51.230;7.860;2022-10-15T00:24:58;13.00;99.90
19734;DHT22;10018;51.230;7.860;2022-10-15T00:27:24;13.00;99.90
19734;DHT22;10018;51.230;7.860;2022-10-15T00:29:49;13.00;99.90
19734;DHT22;10018;51.230;7.860;2022-10-15T00:32:15;13.00;99.90
19734;DHT22;10018;51.230;7.860;2022-10-15T00:34:40;13.10;99.90
19734;DHT22;10018;51.230;7.860;2022-10-15T00:37:06;13.00;99.90
19734;DHT22;10018;51.230;7.860;2022-10-15T00:39:32;13.10;99.90
19734;DHT22;10018;51.230;7.860;2022-10-15T00:41:58;13.10;99.90
19734;DHT22;10018;51.230;7.860;2022-10-15T00:46:52;13.00;99.90
19734;DHT22;10018;51.230;7.860;2022-10-15T00:49:35;13.00;99.90
19734;DHT22;10018;51.230;7.860;2022-10-15T00:52:06;13.00;99.90
19734;DHT22;10018;51.230;7.860;2022-10-15T00:54:37;13.10;99.90
19734;DHT22;10018;51.230;7.860;2022-10-15T00:57:05;13.00;99.90
19734;DHT22;10018;51.230;7.860;2022-10-15T00:59:32;13.10;99.90
19734;DHT22;10018;51.230;7.860;2022-10-15T01:01:59;13.00;99.90
19734;DHT22;10018;51.230;7.860;2022-10-15T01:04:26;13.00;99.90
19734;DHT22;10018;51.230;7.860;2022-10-15T01:06:52;13.00;99.90
19734;DHT22;10018;51.230;7.860;2022-10-15T01:09:17;13.00;99.90
19734;DHT22;10018;51.230;7.860;2022-10-15T01:11:48;13.00;99.90
19734;DHT22;10018;51.230;7.860;2022-10-15T01:16:49;13.00;99.90
19734;DHT22;10018;51.230;7.860;2022-10-15T01:19:55;13.00;99.90
19734;DHT22;10018;51.230;7.860;2022-10-15T01:28:38;13.00;99.90
19734;DHT22;10018;51.230;7.860;2022-10-15T01:31:32;13.00;99.90
19734;DHT22;10018;51.230;7.860;2022-10-15T01:34:21;13.00;99.90
19734;DHT22;10018;51.230;7.860;2022-10-15T01:37:12;13.00;99.90
19734;DHT22;10018;51.230;7.860;2022-10-15T01:39:44;13.00;99.90
19734;DHT22;10018;51.230;7.860;2022-10-15T01:42:17;13.10;99.90
19734;DHT22;10018;51.230;7.860;2022-10-15T01:44:49;13.00;99.90
19734;DHT22;10018;51.230;7.860;2022-10-15T01:47:26;13.00;99.90
19734;DHT22;10018;51.230;7.860;2022-10-15T01:49:54;13.00;99.90
19734;DHT22;10018;51.230;7.860;2022-10-15T01:52:26;13.00;99.90
19734;DHT22;10018;51.230;7.860;2022-10-15T01:54:53;13.00;99.90
19734;DHT22;10018;51.230;7.860;2022-10-15T01:57:21;12.90;99.90
19734;DHT22;10018;51.230;7.860;2022-10-15T01:59:48;12.90;99.90
19734;DHT22;10018;51.230;7.860;2022-10-15T02:02:14;12.90;99.90
19734;DHT22;10018;51.230;7.860;2022-10-15T02:04:39;12.90;99.90
19734;DHT22;10018;51.230;7.860;2022-10-15T02:10:18;12.90;99.90
19734;DHT22;10018;51.230;7.860;2022-10-15T02:18:42;13.00;99.90
19734;DHT22;10018;51.230;7.860;2022-10-15T02:23:52;13.00;99.90
19734;DHT22;10018;51.230;7.860;2022-10-15T02:26:19;13.00;99.90
19734;DHT22;10018;51.230;7.860;2022-10-15T02:28:49;12.90;99.90
19734;DHT22;10018;51.230;7.860;2022-10-15T02:31:16;12.90;99.90
19734;DHT22;10018;51.230;7.860;2022-10-15T02:33:43;13.00;99.90
19734;DHT22;10018;51.230;7.860;2022-10-15T02:36:09;12.90;99.90
19734;DHT22;10018;51.230;7.860;2022-10-15T02:38:37;12.90;99.90
19734;DHT22;10018;51.230;7.860;2022-10-15T02:41:06;12.90;99.90
19734;DHT22;10018;51.230;7.860;2022-10-15T02:43:33;12.90;99.90
19734;DHT22;10018;51.230;7.860;2022-10-15T02:45:59;13.00;99.90
19734;DHT22;10018;51.230;7.860;2022-10-15T02:48:25;12.90;99.90
19734;DHT22;10018;51.230;7.860;2022-10-15T02:50:50;12.90;99.90
19734;DHT22;10018;51.230;7.860;2022-10-15T02:53:16;12.90;99.90
19734;DHT22;10018;51.230;7.860;2022-10-15T02:55:41;12.90;99.90
19734;DHT22;10018;51.230;7.860;2022-10-15T02:58:07;12.90;99.90
19734;DHT22;10018;51.230;7.860;2022-10-15T03:00:32;12.90;99.90
19734;DHT22;10018;51.230;7.860;2022-10-15T03:02:58;12.90;99.90
19734;DHT22;10018;51.230;7.860;2022-10-15T03:05:23;12.90;99.90
19734;DHT22;10018;51.230;7.860;2022-10-15T03:07:49;12.90;99.90
19734;DHT22;10018;51.230;7.860;2022-10-15T03:10:14;12.90;99.90
19734;DHT22;10018;51.230;7.860;2022-10-15T03:12:40;12.90;99.90
19734;DHT22;10018;51.230;7.860;2022-10-15T03:15:06;12.90;99.90
19734;DHT22;10018;51.230;7.860;2022-10-15T03:17:32;12.90;99.90
19734;DHT22;10018;51.230;7.860;2022-10-15T03:19:57;12.90;99.90
19734;DHT22;10018;51.230;7.860;2022-10-15T03:22:22;12.90;99.90
19734;DHT22;10018;51.230;7.860;2022-10-15T03:24:48;13.00;99.90
19734;DHT22;10018;51.230;7.860;2022-10-15T03:27:13;12.90;99.90
19734;DHT22;10018;51.230;7.860;2022-10-15T03:29:39;13.00;99.90
19734;DHT22;10018;51.230;7.860;2022-10-15T03:32:04;12.90;99.90
19734;DHT22;10018;51.230;7.860;2022-10-15T03:34:30;12.90;99.90
19734;DHT22;10018;51.230;7.860;2022-10-15T03:36:55;12.90;99.90
19734;DHT22;10018;51.230;7.860;2022-10-15T03:39:21;12.90;99.90
19734;DHT22;10018;51.230;7.860;2022-10-15T03:41:46;12.90;99.90
19734;DHT22;10018;51.230;7.860;2022-10-15T03:44:12;12.90;99.90
19734;DHT22;10018;51.230;7.860;2022-10-15T03:46:37;12.90;99.90
19734;DHT22;10018;51.230;7.860;2022-10-15T03:49:03;12.90;99.90
19734;DHT22;10018;51.230;7.860;2022-10-15T03:51:29;12.90;99.90
19734;DHT22;10018;51.230;7.860;2022-10-15T03:53:55;12.90;99.90
19734;DHT22;10018;51.230;7.860;2022-10-15T03:56:20;12.90;99.90
19734;DHT22;10018;51.230;7.860;2022-10-15T03:58:46;12.90;99.90
19734;DHT22;10018;51.230;7.860;2022-10-15T04:01:14;12.90;99.90
19734;DHT22;10018;51.230;7.860;2022-10-15T04:03:40;12.90;99.90
19734;DHT22;10018;51.230;7.860;2022-10-15T04:06:06;12.90;99.90
19734;DHT22;10018;51.230;7.860;2022-10-15T04:08:32;12.90;99.90
19734;DHT22;10018;51.230;7.860;2022-10-15T04:10:57;12.90;99.90
19734;DHT22;10018;51.230;7.860;2022-10-15T04:13:24;12.90;99.90
19734;DHT22;10018;51.230;7.860;2022-10-15T04:15:50;12.90;99.90
19734;DHT22;10018;51.230;7.860;2022-10-15T04:18:15;12.90;99.90
19734;DHT22;10018;51.230;7.860;2022-10-15T04:20:41;12.90;99.90
19734;DHT22;10018;51.230;7.860;2022-10-15T04:23:07;12.90;99.90
19734;DHT22;10018;51.230;7.860;2022-10-15T04:25:34;12.90;99.90
19734;DHT22;10018;51.230;7.860;2022-10-15T04:28:01;12.90;99.90
19734;DHT22;10018;51.230;7.860;2022-10-15T04:30:26;12.90;99.90
19734;DHT22;10018;51.230;7.860;2022-10-15T04:32:52;12.90;99.90
19734;DHT22;10018;51.230;7.860;2022-10-15T04:35:18;12.90;99.90
19734;DHT22;10018;51.230;7.860;2022-10-15T04:37:44;12.90;99.90
19734;DHT22;10018;51.230;7.860;2022-10-15T04:40:10;12.90;99.90
19734;DHT22;10018;51.230;7.860;2022-10-15T04:42:36;12.90;99.90
19734;DHT22;10018;51.230;7.860;2022-10-15T04:45:02;12.90;99.90
19734;DHT22;10018;51.230;7.860;2022-10-15T04:47:27;12.90;99.90
19734;DHT22;10018;51.230;7.860;2022-10-15T04:49:53;12.80;99.90
19734;DHT22;10018;51.230;7.860;2022-10-15T04:52:18;12.90;99.90
19734;DHT22;10018;51.230;7.860;2022-10-15T04:54:44;12.90;99.90
19734;DHT22;10018;51.230;7.860;2022-10-15T04:57:10;12.90;99.90
19734;DHT22;10018;51.230;7.860;2022-10-15T04:59:35;12.90;99.90
19734;DHT22;10018;51.230;7.860;2022-10-15T05:02:01;12.90;99.90
19734;DHT22;10018;51.230;7.860;2022-10-15T05:04:26;12.90;99.90
19734;DHT22;10018;51.230;7.860;2022-10-15T05:06:52;12.90;99.90
19734;DHT22;10018;51.230;7.860;2022-10-15T05:09:17;12.90;99.90
19734;DHT22;10018;51.230;7.860;2022-10-15T05:11:43;12.90;99.90
19734;DHT22;10018;51.230;7.860;2022-10-15T05:14:08;12.90;99.90
19734;DHT22;10018;51.230;7.860;2022-10-15T05:16:34;12.90;99.90
19734;DHT22;10018;51.230;7.860;2022-10-15T05:19:04;12.90;99.90
19734;DHT22;10018;51.230;7.860;2022-10-15T05:21:31;12.90;99.90
19734;DHT22;10018;51.230;7.860;2022-10-15T05:23:57;12.90;99.90
19734;DHT22;10018;51.230;7.860;2022-10-15T05:26:25;12.90;99.90
19734;DHT22;10018;51.230;7.860;2022-10-15T05:28:51;12.90;99.90
19734;DHT22;10018;51.230;7.860;2022-10-15T05:31:21;12.80;99.90
19734;DHT22;10018;51.230;7.860;2022-10-15T05:33:48;12.90;99.90
19734;DHT22;10018;51.230;7.860;2022-10-15T05:36:22;12.90;99.90
19734;DHT22;10018;51.230;7.860;2022-10-15T05:38:53;12.80;99.90
19734;DHT22;10018;51.230;7.860;2022-10-15T05:41:19;12.90;99.90
19734;DHT22;10018;51.230;7.860;2022-10-15T05:43:46;12.90;99.90
19734;DHT22;10018;51.230;7.860;2022-10-15T05:46:12;12.80;99.90
19734;DHT22;10018;51.230;7.860;2022-10-15T05:48:37;12.80;99.90
19734;DHT22;10018;51.230;7.860;2022-10-15T05:51:05;12.90;99.90
19734;DHT22;10018;51.230;7.860;2022-10-15T05:53:30;12.90;99.90
19734;DHT22;10018;51.230;7.860;2022-10-15T05:55:57;12.90;99.90
19734;DHT22;10018;51.230;7.860;2022-10-15T05:58:27;12.90;99.90
19734;DHT22;10018;51.230;7.860;2022-10-15T06:00:57;12.90;99.90
19734;DHT22;10018;51.230;7.860;2022-10-15T06:03:23;12.90;99.90
19734;DHT22;10018;51.230;7.860;2022-10-15T06:05:49;12.90;99.90
19734;DHT22;10018;51.230;7.860;2022-10-15T06:08:15;12.90;99.90
19734;DHT22;10018;51.230;7.860;2022-10-15T06:10:41;12.90;99.90
19734;DHT22;10018;51.230;7.860;2022-10-15T06:13:07;12.90;99.90
19734;DHT22;10018;51.230;7.860;2022-10-15T06:15:33;12.90;99.90
19734;DHT22;10018;51.230;7.860;2022-10-15T06:17:59;12.90;99.90
19734;DHT22;10018;51.230;7.860;2022-10-15T06:20:26;12.80;99.90
19734;DHT22;10018;51.230;7.860;2022-10-15T06:22:58;12.80;99.90
19734;DHT22;10018;51.230;7.860;2022-10-15T06:25:24;12.80;99.90
19734;DHT22;10018;51.230;7.860;2022-10-15T06:27:50;12.80;99.90
19734;DHT22;10018;51.230;7.860;2022-10-15T06:30:15;12.80;99.90
19734;DHT22;10018;51.230;7.860;2022-10-15T06:32:48;12.80;99.90
19734;DHT22;10018;51.230;7.860;2022-10-15T06:35:14;12.80;99.90
19734;DHT22;10018;51.230;7.860;2022-10-15T06:37:40;12.90;99.90
19734;DHT22;10018;51.230;7.860;2022-10-15T06:40:06;13.00;99.90
19734;DHT22;10018;51.230;7.860;2022-10-15T06:42:31;13.00;99.90
19734;DHT22;10018;51.230;7.860;2022-10-15T06:44:57;13.00;99.90
19734;DHT22;10018;51.230;7.860;2022-10-15T06:47:22;13.00;99.90
19734;DHT22;10018;51.230;7.860;2022-10-15T06:49:48;13.10;99.90
19734;DHT22;10018;51.230;7.860;2022-10-15T06:52:13;13.10;99.90
19734;DHT22;10018;51.230;7.860;2022-10-15T06:54:39;13.20;99.90
19734;DHT22;10018;51.230;7.860;2022-10-15T06:57:04;13.30;99.90
19734;DHT22;10018;51.230;7.860;2022-10-15T06:59:30;13.30;99.90
19734;DHT22;10018;51.230;7.860;2022-10-15T07:01:55;13.50;99.90
19734;DHT22;10018;51.230;7.860;2022-10-15T07:04:22;13.50;99.90
19734;DHT22;10018;51.230;7.860;2022-10-15T07:06:48;13.50;99.90
19734;DHT22;10018;51.230;7.860;2022-10-15T07:09:14;13.50;99.90
19734;DHT22;10018;51.230;7.860;2022-10-15T07:11:39;13.50;99.90
19734;DHT22;10018;51.230;7.860;2022-10-15T07:14:05;13.50;99.90
19734;DHT22;10018;51.230;7.860;2022-10-15T07:16:30;13.60;99.90
19734;DHT22;10018;51.230;7.860;2022-10-15T07:18:56;13.60;99.90
19734;DHT22;10018;51.230;7.860;2022-10-15T07:21:21;13.60;99.90
19734;DHT22;10018;51.230;7.860;2022-10-15T07:23:47;13.60;99.90
19734;DHT22;10018;51.230;7.860;2022-10-15T07:26:12;13.60;99.90
19734;DHT22;10018;51.230;7.860;2022-10-15T07:28:38;13.60;99.90
19734;DHT22;10018;51.230;7.860;2022-10-15T07:31:05;13.60;99.90
19734;DHT22;10018;51.230;7.860;2022-10-15T07:33:31;13.60;99.90
19734;DHT22;10018;51.230;7.860;2022-10-15T07:36:08;13.60;99.90
19734;DHT22;10018;51.230;7.860;2022-10-15T07:38:34;13.60;99.90
19734;DHT22;10018;51.230;7.860;2022-10-15T07:41:01;13.60;99.90
19734;DHT22;10018;51.230;7.860;2022-10-15T07:43:27;13.60;99.90
19734;DHT22;10018;51.230;7.860;2022-10-15T07:45:53;13.70;99.90
19734;DHT22;10018;51.230;7.860;2022-10-15T07:48:18;13.70;99.90
19734;DHT22;10018;51.230;7.860;2022-10-15T07:50:44;13.60;99.90
19734;DHT22;10018;51.230;7.860;2022-10-15T07:53:10;13.70;99.90
19734;DHT22;10018;51.230;7.860;2022-10-15T07:55:35;13.70;99.90
19734;DHT22;10018;51.230;7.860;2022-10-15T07:58:01;13.80;99.90
19734;DHT22;10018;51.230;7.860;2022-10-15T08:00:26;13.90;99.90
19734;DHT22;10018;51.230;7.860;2022-10-15T08:02:52;13.90;99.90
19734;DHT22;10018;51.230;7.860;2022-10-15T08:05:17;13.90;99.90
19734;DHT22;10018;51.230;7.860;2022-10-15T08:07:43;13.90;99.90
19734;DHT22;10018;51.230;7.860;2022-10-15T08:10:08;13.90;99.90
19734;DHT22;10018;51.230;7.860;2022-10-15T08:12:35;13.90;99.90
19734;DHT22;10018;51.230;7.860;2022-10-15T08:15:01;13.90;99.90
19734;DHT22;10018;51.230;7.860;2022-10-15T08:17:26;14.00;99.90
19734;DHT22;10018;51.230;7.860;2022-10-15T08:19:52;14.00;99.90
19734;DHT22;10018;51.230;7.860;2022-10-15T08:22:17;14.00;99.90
19734;DHT22;10018;51.230;7.860;2022-10-15T08:24:43;14.00;99.90
19734;DHT22;10018;51.230;7.860;2022-10-15T08:27:09;14.10;99.90
19734;DHT22;10018;51.230;7.860;2022-10-15T08:29:34;14.10;99.90
19734;DHT22;10018;51.230;7.860;2022-10-15T08:32:00;14.10;99.90
19734;DHT22;10018;51.230;7.860;2022-10-15T08:34:25;14.10;99.90
19734;DHT22;10018;51.230;7.860;2022-10-15T08:36:51;14.10;99.90
19734;DHT22;10018;51.230;7.860;2022-10-15T08:39:17;14.20;99.90
19734;DHT22;10018;51.230;7.860;2022-10-15T08:41:51;14.10;99.90
19734;DHT22;10018;51.230;7.860;2022-10-15T08:44:30;14.20;99.90
19734;DHT22;10018;51.230;7.860;2022-10-15T08:47:25;14.20;99.90
19734;DHT22;10018;51.230;7.860;2022-10-15T08:49:55;14.30;99.90
19734;DHT22;10018;51.230;7.860;2022-10-15T08:54:54;14.40;99.90
19734;DHT22;10018;51.230;7.860;2022-10-15T08:57:46;14.40;99.90
19734;DHT22;10018;51.230;7.860;2022-10-15T09:05:46;14.60;99.90
19734;DHT22;10018;51.230;7.860;2022-10-15T09:08:27;14.60;99.90
19734;DHT22;10018;51.230;7.860;2022-10-15T09:10:59;14.70;99.90
19734;DHT22;10018;51.230;7.860;2022-10-15T09:13:32;14.80;99.90
19734;DHT22;10018;51.230;7.860;2022-10-15T09:16:13;14.90;99.90
19734;DHT22;10018;51.230;7.860;2022-10-15T09:18:43;15.00;99.90
19734;DHT22;10018;51.230;7.860;2022-10-15T09:21:09;15.20;99.90
19734;DHT22;10018;51.230;7.860;2022-10-15T09:23:37;15.20;99.90
19734;DHT22;10018;51.230;7.860;2022-10-15T09:29:29;15.30;99.90
19734;DHT22;10018;51.230;7.860;2022-10-15T09:32:17;15.20;99.90
19734;DHT22;10018;51.230;7.860;2022-10-15T09:40:36;15.40;99.90
19734;DHT22;10018;51.230;7.860;2022-10-15T09:43:04;15.40;99.90
19734;DHT22;10018;51.230;7.860;2022-10-15T09:45:30;15.50;99.90
19734;DHT22;10018;51.230;7.860;2022-10-15T09:47:58;15.60;99.90
19734;DHT22;10018;51.230;7.860;2022-10-15T09:50:38;15.70;99.90
19734;DHT22;10018;51.230;7.860;2022-10-15T09:55:46;15.90;99.90
19734;DHT22;10018;51.230;7.860;2022-10-15T09:58:23;16.00;99.90
19734;DHT22;10018;51.230;7.860;2022-10-15T10:03:15;16.00;99.90
19734;DHT22;10018;51.230;7.860;2022-10-15T10:05:41;15.90;99.90
19734;DHT22;10018;51.230;7.860;2022-10-15T10:08:28;15.90;99.90
19734;DHT22;10018;51.230;7.860;2022-10-15T10:10:57;16.00;99.90
19734;DHT22;10018;51.230;7.860;2022-10-15T10:13:24;16.10;99.90
19734;DHT22;10018;51.230;7.860;2022-10-15T10:15:55;16.10;99.90
19734;DHT22;10018;51.230;7.860;2022-10-15T10:18:26;16.20;99.90
19734;DHT22;10018;51.230;7.860;2022-10-15T10:23:22;16.20;99.90
19734;DHT22;10018;51.230;7.860;2022-10-15T10:25:48;16.10;99.90
19734;DHT22;10018;51.230;7.860;2022-10-15T10:28:24;16.10;99.90
19734;DHT22;10018;51.230;7.860;2022-10-15T10:31:01;16.20;99.90
19734;DHT22;10018;51.230;7.860;2022-10-15T10:33:31;16.20;99.90
19734;DHT22;10018;51.230;7.860;2022-10-15T10:35:58;16.10;99.90
19734;DHT22;10018;51.230;7.860;2022-10-15T10:38:34;16.30;99.90
19734;DHT22;10018;51.230;7.860;2022-10-15T10:41:08;16.30;99.90
19734;DHT22;10018;51.230;7.860;2022-10-15T10:43:36;16.30;99.90
19734;DHT22;10018;51.230;7.860;2022-10-15T10:48:47;16.30;99.90
19734;DHT22;10018;51.230;7.860;2022-10-15T10:51:17;16.30;99.90
19734;DHT22;10018;51.230;7.860;2022-10-15T10:53:45;16.30;99.90
19734;DHT22;10018;51.230;7.860;2022-10-15T10:56:12;16.40;99.90
19734;DHT22;10018;51.230;7.860;2022-10-15T10:58:40;16.30;99.90
19734;DHT22;10018;51.230;7.860;2022-10-15T11:01:10;16.40;99.90
19734;DHT22;10018;51.230;7.860;2022-10-15T11:03:41;16.40;99.90
19734;DHT22;10018;51.230;7.860;2022-10-15T11:13:55;16.40;99.90
19734;DHT22;10018;51.230;7.860;2022-10-15T11:16:34;16.30;99.90
19734;DHT22;10018;51.230;7.860;2022-10-15T11:19:11;16.30;99.90
19734;DHT22;10018;51.230;7.860;2022-10-15T11:24:51;16.30;99.90
19734;DHT22;10018;51.230;7.860;2022-10-15T11:30:17;16.20;99.90
19734;DHT22;10018;51.230;7.860;2022-10-15T11:38:56;16.40;99.90
19734;DHT22;10018;51.230;7.860;2022-10-15T11:41:38;16.30;99.90
19734;DHT22;10018;51.230;7.860;2022-10-15T11:44:31;16.30;99.90
19734;DHT22;10018;51.230;7.860;2022-10-15T11:50:21;16.10;99.90
19734;DHT22;10018;51.230;7.860;2022-10-15T11:53:02;16.10;99.90
19734;DHT22;10018;51.230;7.860;2022-10-15T11:55:41;16.10;99.90
19734;DHT22;10018;51.230;7.860;2022-10-15T12:00:55;16.10;99.90
19734;DHT22;10018;51.230;7.860;2022-10-15T12:03:26;16.10;99.90
19734;DHT22;10018;51.230;7.860;2022-10-15T12:06:03;16.20;99.90
19734;DHT22;10018;51.230;7.860;2022-10-15T12:08:33;16.20;99.90
19734;DHT22;10018;51.230;7.860;2022-10-15T12:13:33;16.30;99.90
19734;DHT22;10018;51.230;7.860;2022-10-15T12:16:11;16.30;99.90
19734;DHT22;10018;51.230;7.860;2022-10-15T12:19:10;16.30;99.90
19734;DHT22;10018;51.230;7.860;2022-10-15T12:29:43;16.40;99.90
19734;DHT22;10018;51.230;7.860;2022-10-15T12:32:27;16.40;99.90
19734;DHT22;10018;51.230;7.860;2022-10-15T12:35:01;16.50;99.90
19734;DHT22;10018;51.230;7.860;2022-10-15T12:37:28;16.50;99.90
19734;DHT22;10018;51.230;7.860;2022-10-15T12:39:58;16.40;99.90
19734;DHT22;10018;51.230;7.860;2022-10-15T12:42:37;16.40;99.90
19734;DHT22;10018;51.230;7.860;2022-10-15T12:45:20;16.50;99.90
19734;DHT22;10018;51.230;7.860;2022-10-15T12:47:52;16.50;99.90
19734;DHT22;10018;51.230;7.860;2022-10-15T12:50:23;16.60;99.90
19734;DHT22;10018;51.230;7.860;2022-10-15T12:53:04;16.60;99.90
19734;DHT22;10018;51.230;7.860;2022-10-15T12:55:32;16.60;99.90
19734;DHT22;10018;51.230;7.860;2022-10-15T13:00:39;16.60;99.90
19734;DHT22;10018;51.230;7.860;2022-10-15T13:03:33;16.60;99.90
19734;DHT22;10018;51.230;7.860;2022-10-15T13:08:56;16.60;99.90
19734;DHT22;10018;51.230;7.860;2022-10-15T13:11:31;16.60;99.90
19734;DHT22;10018;51.230;7.860;2022-10-15T13:16:52;16.70;99.90
19734;DHT22;10018;51.230;7.860;2022-10-15T13:19:20;16.70;99.90
19734;DHT22;10018;51.230;7.860;2022-10-15T13:21:57;16.60;99.90
19734;DHT22;10018;51.230;7.860;2022-10-15T13:24:26;16.70;99.90
19734;DHT22;10018;51.230;7.860;2022-10-15T13:26:53;16.70;99.90
19734;DHT22;10018;51.230;7.860;2022-10-15T13:29:24;16.70;99.90
19734;DHT22;10018;51.230;7.860;2022-10-15T13:31:51;16.70;99.90
19734;DHT22;10018;51.230;7.860;2022-10-15T13:34:30;16.80;99.90
19734;DHT22;10018;51.230;7.860;2022-10-15T13:36:58;16.80;99.90
19734;DHT22;10018;51.230;7.860;2022-10-15T13:39:31;16.70;99.90
19734;DHT22;10018;51.230;7.860;2022-10-15T13:42:21;16.70;99.90
19734;DHT22;10018;51.230;7.860;2022-10-15T13:45:16;16.70;99.90
19734;DHT22;10018;51.230;7.860;2022-10-15T13:47:46;16.80;99.90
19734;DHT22;10018;51.230;7.860;2022-10-15T13:52:58;16.90;99.90
19734;DHT22;10018;51.230;7.860;2022-10-15T13:55:29;17.00;99.90
19734;DHT22;10018;51.230;7.860;2022-10-15T13:58:20;17.00;99.90
19734;DHT22;10018;51.230;7.860;2022-10-15T14:00:59;17.00;99.90
19734;DHT22;10018;51.230;7.860;2022-10-15T14:03:29;17.10;99.90
19734;DHT22;10018;51.230;7.860;2022-10-15T14:05:57;17.10;99.90
19734;DHT22;10018;51.230;7.860;2022-10-15T14:08:34;17.20;99.90
19734;DHT22;10018;51.230;7.860;2022-10-15T14:11:00;17.20;99.90
19734;DHT22;10018;51.230;7.860;2022-10-15T14:13:27;17.20;99.90
19734;DHT22;10018;51.230;7.860;2022-10-15T14:15:58;17.30;99.90
19734;DHT22;10018;51.230;7.860;2022-10-15T14:18:36;17.30;99.90
19734;DHT22;10018;51.230;7.860;2022-10-15T14:21:08;17.30;99.90
19734;DHT22;10018;51.230;7.860;2022-10-15T14:23:34;17.40;99.90
19734;DHT22;10018;51.230;7.860;2022-10-15T14:26:01;17.40;99.90
19734;DHT22;10018;51.230;7.860;2022-10-15T14:28:30;17.50;99.90
19734;DHT22;10018;51.230;7.860;2022-10-15T14:30:56;17.50;99.90
19734;DHT22;10018;51.230;7.860;2022-10-15T14:33:39;17.50;99.90
19734;DHT22;10018;51.230;7.860;2022-10-15T14:36:11;17.50;99.90
19734;DHT22;10018;51.230;7.860;2022-10-15T14:38:38;17.50;99.90
19734;DHT22;10018;51.230;7.860;2022-10-15T14:41:30;17.60;99.90
19734;DHT22;10018;51.230;7.860;2022-10-15T14:46:42;17.60;99.90
19734;DHT22;10018;51.230;7.860;2022-10-15T14:49:18;17.60;99.90
19734;DHT22;10018;51.230;7.860;2022-10-15T14:51:52;17.60;99.90
19734;DHT22;10018;51.230;7.860;2022-10-15T14:54:22;17.60;99.90
19734;DHT22;10018;51.230;7.860;2022-10-15T14:56:49;17.50;99.90
19734;DHT22;10018;51.230;7.860;2022-10-15T14:59:17;17.50;99.90
19734;DHT22;10018;51.230;7.860;2022-10-15T15:01:52;17.50;99.90
19734;DHT22;10018;51.230;7.860;2022-10-15T15:04:39;17.50;99.90
19734;DHT22;10018;51.230;7.860;2022-10-15T15:07:15;17.50;99.90
19734;DHT22;10018;51.230;7.860;2022-10-15T15:09:42;17.40;99.90
19734;DHT22;10018;51.230;7.860;2022-10-15T15:12:16;17.40;99.90
19734;DHT22;10018;51.230;7.860;2022-10-15T15:14:42;17.40;99.90
19734;DHT22;10018;51.230;7.860;2022-10-15T15:17:13;17.30;99.90
19734;DHT22;10018;51.230;7.860;2022-10-15T15:19:40;17.40;99.90
19734;DHT22;10018;51.230;7.860;2022-10-15T15:22:09;17.40;99.90
19734;DHT22;10018;51.230;7.860;2022-10-15T15:24:35;17.40;99.90
19734;DHT22;10018;51.230;7.860;2022-10-15T15:27:01;17.40;99.90
19734;DHT22;10018;51.230;7.860;2022-10-15T15:29:26;17.40;99.90
19734;DHT22;10018;51.230;7.860;2022-10-15T15:31:53;17.40;99.90
19734;DHT22;10018;51.230;7.860;2022-10-15T15:34:18;17.30;99.90
19734;DHT22;10018;51.230;7.860;2022-10-15T15:36:44;17.30;99.90
19734;DHT22;10018;51.230;7.860;2022-10-15T15:39:09;17.30;99.90
19734;DHT22;10018;51.230;7.860;2022-10-15T15:41:35;17.20;99.90
19734;DHT22;10018;51.230;7.860;2022-10-15T15:44:01;17.10;99.90
19734;DHT22;10018;51.230;7.860;2022-10-15T15:46:28;17.10;99.90
19734;DHT22;10018;51.230;7.860;2022-10-15T15:48:54;17.20;99.90
19734;DHT22;10018;51.230;7.860;2022-10-15T15:51:29;17.10;99.90
19734;DHT22;10018;51.230;7.860;2022-10-15T15:53:56;17.10;99.90
19734;DHT22;10018;51.230;7.860;2022-10-15T15:56:22;17.00;99.90
19734;DHT22;10018;51.230;7.860;2022-10-15T15:58:48;17.00;99.90
19734;DHT22;10018;51.230;7.860;2022-10-15T16:01:15;17.00;99.90
19734;DHT22;10018;51.230;7.860;2022-10-15T16:03:41;17.00;99.90
19734;DHT22;10018;51.230;7.860;2022-10-15T16:06:07;16.90;99.90
19734;DHT22;10018;51.230;7.860;2022-10-15T16:08:34;16.90;99.90
19734;DHT22;10018;51.230;7.860;2022-10-15T16:11:04;16.90;99.90
19734;DHT22;10018;51.230;7.860;2022-10-15T16:13:30;16.90;99.90
19734;DHT22;10018;51.230;7.860;2022-10-15T16:15:55;16.90;99.90
19734;DHT22;10018;51.230;7.860;2022-10-15T16:18:21;16.90;99.90
19734;DHT22;10018;51.230;7.860;2022-10-15T16:20:47;17.00;99.90
19734;DHT22;10018;51.230;7.860;2022-10-15T16:23:13;17.00;99.90
19734;DHT22;10018;51.230;7.860;2022-10-15T16:25:38;16.90;99.90
19734;DHT22;10018;51.230;7.860;2022-10-15T16:28:04;17.00;99.90
19734;DHT22;10018;51.230;7.860;2022-10-15T16:30:29;17.00;99.90
19734;DHT22;10018;51.230;7.860;2022-10-15T16:32:55;17.00;99.90
19734;DHT22;10018;51.230;7.860;2022-10-15T16:35:21;17.00;99.90
19734;DHT22;10018;51.230;7.860;2022-10-15T16:37:46;16.90;99.90
19734;DHT22;10018;51.230;7.860;2022-10-15T16:40:13;16.80;99.90
19734;DHT22;10018;51.230;7.860;2022-10-15T16:42:40;16.80;99.90
19734;DHT22;10018;51.230;7.860;2022-10-15T16:45:06;16.90;99.90
19734;DHT22;10018;51.230;7.860;2022-10-15T16:47:32;16.90;99.90
19734;DHT22;10018;51.230;7.860;2022-10-15T16:49:57;16.80;99.90
19734;DHT22;10018;51.230;7.860;2022-10-15T16:52:23;16.80;99.90
19734;DHT22;10018;51.230;7.860;2022-10-15T16:54:48;16.80;99.90
19734;DHT22;10018;51.230;7.860;2022-10-15T16:57:14;16.80;99.90
19734;DHT22;10018;51.230;7.860;2022-10-15T16:59:39;16.80;99.90
19734;DHT22;10018;51.230;7.860;2022-10-15T17:02:05;16.90;99.90
19734;DHT22;10018;51.230;7.860;2022-10-15T17:04:30;16.90;99.90
19734;DHT22;10018;51.230;7.860;2022-10-15T17:06:56;16.90;99.90
19734;DHT22;10018;51.230;7.860;2022-10-15T17:09:21;17.00;99.90
19734;DHT22;10018;51.230;7.860;2022-10-15T17:11:48;17.00;99.90
19734;DHT22;10018;51.230;7.860;2022-10-15T17:14:15;17.10;99.90
19734;DHT22;10018;51.230;7.860;2022-10-15T17:16:45;17.00;99.90
19734;DHT22;10018;51.230;7.860;2022-10-15T17:19:13;17.00;99.90
19734;DHT22;10018;51.230;7.860;2022-10-15T17:21:39;17.00;99.90